Pas de pilote en ligne...

Compagnie Fsx-France ! Un nouveau look pour votre VA, par : Julien & Co

 METAR ET TAF INFORMATION
METAR FOR LJLJ
ADDS - METARS form results

(0311 UTC 29 June 2022)
Data provider http://aviationweather.gov/metar/data/
 
METAR text: LJLJ 290300Z 30003KT 250V010 9999 VCSH FEW050TCU BKN140 19/19 Q1013 NOSIG
Conditions at: LJLJ (LJUBLJANA/BRNIK , SI) observed 0300 UTC 29 June 2022
Temperature: 19.0°C (66°F)
Dewpoint: 19.0°C (66°F) [RH = 100%]
Pressure (altimeter): 29.91 inches Hg (1013.0 mb)
Winds: from the WNW (300 degrees) at 3 MPH (3 knots; 1.5 m/s)
Visibility: 6 or more miles (10+ km)
Ceiling: 14000 feet AGL
Clouds: few clouds at 5000 feet AGL
broken clouds at 14000 feet AGL
Weather: VCSH  (showers in vicinity)

METAR text: LJLJ 290230Z 24001KT 9999 FEW015 SCT140 19/19 Q1014 NOSIG
Conditions at: LJLJ (LJUBLJANA/BRNIK , SI) observed 0230 UTC 29 June 2022
Temperature: 19.0°C (66°F)
Dewpoint: 19.0°C (66°F) [RH = 100%]
Pressure (altimeter): 29.94 inches Hg (1014.0 mb)
Winds: from the WSW (240 degrees) at 1 MPH (1 knots; 0.5 m/s)
Visibility: 6 or more miles (10+ km)
Ceiling: at least 12,000 feet AGL
Clouds: few clouds at 1500 feet AGL
scattered clouds at 14000 feet AGL
Weather: no significant weather observed at this time

Forecast for: LJLJ (LJUBLJANA/BRNIK , SI)
Text: TAF LJLJ 282300Z 2900/3000 12008KT 9999 FEW060
Forecast period: 0000 UTC 29 June 2022 to 0000 UTC 30 June 2022
Forecast type: FROM: standard forecast or significant change
Winds: from the ESE (120 degrees) at 9 MPH (8 knots; 4.1 m/s)
Visibility: 6 or more miles (10+ km)
Ceiling: at least 12,000 feet AGL
Clouds: few clouds at 6000 feet AGL
Weather: no significant weather forecast for this period
Text: PROB40
Forecast period: 0000 to 2100 UTC 29 June 2022
Forecast type: TEMPORARY: The following changes expected for less than half the time period
Winds: variable direction winds at 17 MPH (15 knots; 7.7 m/s)
gusting to 29 MPH (25 knots; 12.9 m/s)
Visibility: 3 miles (5 km)
Ceiling: 4000 feet AGL
Clouds: broken clouds at 4000 feet AGL
Weather: TSRA  (rain associated with thunderstorm(s))

 AÉROPORT DE AÉROPORT

 INFORMATIONS DE PISTE
Piste 13 Longueur de la piste 3300 m = 10827 ft Largeur de la piste 45 m = 148 ft
Élévation de la piste 1273 ft Seuil de la piste déplacés 0 ft Runway heading 126
Piste 31 Longueur de la piste 3300 m = 10827 ft Largeur de la piste 45 m = 148 ft
Élévation de la piste 1191 ft Seuil de la piste déplacés 0 ft Runway heading 306
 AÉROPORT FRÉQUENCES
Type A/D Nom APP Féquence 135.275 MHZ
Type ATIS Nom also on VO Féquence 128.175 MHZ
Type GND Nom Féquence 121.625 MHZ
Type HANDLING & Nom Féquence 131.4 MHZ
Type TWR Nom TWR Féquence 118 MHZ

 AIDES A LA NAVIGATION
Type VOR-DME Nom Dolsko Féquence 112700 KHZ
Type NDB Nom Dolsko Féquence 328 KHZ
Type NDB Nom Ljubljana Féquence 296 KHZ